createdAt,value
2019-01-15T00:00:50.375Z,967.36
2019-01-15T00:01:50.357Z,967.41
2019-01-15T00:02:50.379Z,967.38
2019-01-15T00:03:50.341Z,967.37
2019-01-15T00:04:50.321Z,967.40
2019-01-15T00:05:50.321Z,967.43
2019-01-15T00:06:50.304Z,967.45
2019-01-15T00:07:50.302Z,967.45
2019-01-15T00:08:50.381Z,967.43
2019-01-15T00:09:50.277Z,967.46
2019-01-15T00:10:50.267Z,967.42
2019-01-15T00:11:50.255Z,967.47
2019-01-15T00:12:50.239Z,967.52
2019-01-15T00:13:50.233Z,967.49
2019-01-15T00:14:50.347Z,967.49
2019-01-15T00:15:50.206Z,967.48
2019-01-15T00:16:50.208Z,967.51
2019-01-15T00:17:50.182Z,967.52
2019-01-15T00:18:50.175Z,967.52
2019-01-15T00:19:50.164Z,967.55
2019-01-15T00:20:50.167Z,967.51
2019-01-15T00:21:50.148Z,967.52
2019-01-15T00:23:00.306Z,967.53
2019-01-15T00:23:50.123Z,967.56
2019-01-15T00:24:50.122Z,967.60
2019-01-15T00:25:50.099Z,967.59
2019-01-15T00:26:50.111Z,967.59
2019-01-15T00:27:50.085Z,967.60
2019-01-15T00:28:50.066Z,967.59
2019-01-15T00:29:50.055Z,967.59
2019-01-15T00:30:50.048Z,967.62
2019-01-15T00:31:50.039Z,967.62
2019-01-15T00:32:50.069Z,967.63
2019-01-15T00:33:50.016Z,967.65
2019-01-15T00:34:50.010Z,967.67
2019-01-15T00:35:49.995Z,967.64
2019-01-15T00:36:49.980Z,967.70
2019-01-15T00:37:49.969Z,967.75
2019-01-15T00:38:50.009Z,967.73
2019-01-15T00:39:49.945Z,967.71
2019-01-15T00:43:02.230Z,967.76
2019-01-15T00:44:02.224Z,967.72
2019-01-15T00:45:02.184Z,967.80
2019-01-15T00:46:02.204Z,967.81
2019-01-15T00:47:02.161Z,967.77
2019-01-15T00:48:02.155Z,967.80
2019-01-15T00:49:02.155Z,967.83
2019-01-15T00:50:02.165Z,967.88
2019-01-15T00:51:02.121Z,967.86
2019-01-15T00:52:02.110Z,967.92
2019-01-15T00:53:02.113Z,967.90
2019-01-15T00:54:02.089Z,967.92
2019-01-15T00:55:02.076Z,967.91
2019-01-15T00:56:02.115Z,967.94
2019-01-15T00:57:02.058Z,967.93
2019-01-15T00:58:02.040Z,967.97
2019-01-15T00:59:02.038Z,967.96
2019-01-15T01:00:02.039Z,967.97
2019-01-15T01:01:02.015Z,968.02
2019-01-15T01:02:02.039Z,968.00
2019-01-15T01:03:01.993Z,967.99
2019-01-15T01:04:01.981Z,968.05
2019-01-15T01:05:01.969Z,968.00
2019-01-15T01:06:01.978Z,968.11
2019-01-15T01:07:01.949Z,968.04
2019-01-15T01:08:01.977Z,968.07
2019-01-15T01:09:01.927Z,968.07
2019-01-15T01:10:01.914Z,968.05
2019-01-15T01:11:01.915Z,968.03
2019-01-15T01:12:01.912Z,968.10
2019-01-15T01:13:09.629Z,968.12
2019-01-15T01:14:01.871Z,968.11
2019-01-15T01:15:01.864Z,968.14
2019-01-15T01:16:01.847Z,968.13
2019-01-15T01:17:01.837Z,968.13
2019-01-15T01:18:01.831Z,968.15
2019-01-15T01:19:01.853Z,968.16
2019-01-15T01:20:01.808Z,968.17
2019-01-15T01:21:01.804Z,968.14
2019-01-15T01:22:01.791Z,968.19
2019-01-15T01:23:01.773Z,968.15
2019-01-15T01:24:01.765Z,968.21
2019-01-15T01:25:01.788Z,968.14
2019-01-15T01:26:01.750Z,968.15
2019-01-15T01:27:01.736Z,968.15
2019-01-15T01:28:01.719Z,968.15
2019-01-15T01:29:01.711Z,968.15
2019-01-15T01:30:01.706Z,968.16
2019-01-15T01:31:01.727Z,968.23
2019-01-15T01:32:01.683Z,968.20
2019-01-15T01:33:01.753Z,968.23
2019-01-15T01:34:01.656Z,968.21
2019-01-15T01:35:01.651Z,968.22
2019-01-15T01:36:01.643Z,968.26
2019-01-15T01:37:01.669Z,968.28
2019-01-15T01:38:01.617Z,968.32
2019-01-15T01:39:01.615Z,968.28
2019-01-15T01:40:01.593Z,968.26
2019-01-15T01:41:01.585Z,968.27
2019-01-15T01:42:01.576Z,968.31
2019-01-15T01:43:01.582Z,968.34
2019-01-15T01:44:12.092Z,968.32
2019-01-15T01:45:01.541Z,968.36
2019-01-15T01:46:01.536Z,968.34
2019-01-15T01:47:01.525Z,968.36
2019-01-15T01:48:01.511Z,968.36
2019-01-15T01:49:01.636Z,968.40
2019-01-15T01:50:01.491Z,968.40
2019-01-15T01:51:01.480Z,968.40
2019-01-15T01:52:01.472Z,968.39
2019-01-15T01:53:01.457Z,968.42
2019-01-15T01:54:01.463Z,968.37
2019-01-15T01:55:01.479Z,968.40
2019-01-15T01:56:01.426Z,968.44
2019-01-15T01:57:01.422Z,968.42
2019-01-15T01:58:01.411Z,968.46
2019-01-15T01:59:01.395Z,968.44
2019-01-15T02:00:01.393Z,968.46
2019-01-15T02:01:01.399Z,968.48
2019-01-15T02:02:01.365Z,968.47
2019-01-15T02:03:01.348Z,968.49
2019-01-15T02:04:01.349Z,968.41
2019-01-15T02:05:01.335Z,968.41
2019-01-15T02:06:01.317Z,968.45
2019-01-15T02:07:01.357Z,968.43
2019-01-15T02:08:01.303Z,968.42
2019-01-15T02:09:01.299Z,968.48
2019-01-15T02:10:01.274Z,968.51
2019-01-15T02:11:01.271Z,968.48
2019-01-15T02:12:01.260Z,968.49
2019-01-15T02:13:01.415Z,968.49
2019-01-15T02:14:01.235Z,968.51
2019-01-15T02:15:11.152Z,968.54
2019-01-15T02:16:01.292Z,968.52
2019-01-15T02:17:01.204Z,968.53
2019-01-15T02:18:01.195Z,968.54
2019-01-15T02:19:01.215Z,968.54
2019-01-15T02:20:01.167Z,968.59
2019-01-15T02:21:01.160Z,968.57
2019-01-15T02:22:01.146Z,968.62
2019-01-15T02:23:01.150Z,968.60
2019-01-15T02:24:01.131Z,968.62
2019-01-15T02:25:01.146Z,968.60
2019-01-15T02:26:01.111Z,968.61
2019-01-15T02:27:01.098Z,968.64
2019-01-15T02:28:01.091Z,968.60
2019-01-15T02:29:01.084Z,968.59
2019-01-15T02:30:01.084Z,968.65
2019-01-15T02:31:01.227Z,968.63
2019-01-15T02:32:01.041Z,968.66
2019-01-15T02:33:01.034Z,968.66
2019-01-15T02:34:01.026Z,968.61
2019-01-15T02:35:01.011Z,968.63
2019-01-15T02:36:01.001Z,968.61
2019-01-15T02:37:01.129Z,968.60
2019-01-15T02:38:00.984Z,968.59
2019-01-15T02:39:01.019Z,968.64
2019-01-15T02:40:00.958Z,968.60
2019-01-15T02:41:00.954Z,968.62
2019-01-15T02:42:00.944Z,968.65
2019-01-15T02:43:00.969Z,968.67
2019-01-15T02:44:00.917Z,968.69
2019-01-15T02:45:00.905Z,968.69
2019-01-15T02:46:13.105Z,968.67
2019-01-15T02:47:00.885Z,968.68
2019-01-15T02:48:00.870Z,968.69
2019-01-15T02:49:00.898Z,968.65
2019-01-15T02:50:00.887Z,968.68
2019-01-15T02:51:00.846Z,968.69
2019-01-15T02:52:00.829Z,968.71
2019-01-15T02:53:00.824Z,968.71
2019-01-15T02:54:00.811Z,968.74
2019-01-15T02:55:00.820Z,968.72
2019-01-15T02:56:00.788Z,968.70
2019-01-15T02:57:00.780Z,968.78
2019-01-15T02:58:00.765Z,968.75
2019-01-15T02:59:00.761Z,968.79
2019-01-15T03:00:00.746Z,968.78
2019-01-15T03:01:00.764Z,968.80
2019-01-15T03:02:00.729Z,968.81
2019-01-15T03:03:00.719Z,968.81
2019-01-15T03:04:00.703Z,968.77
2019-01-15T03:05:00.694Z,968.83
2019-01-15T03:06:00.685Z,968.78
2019-01-15T03:07:00.718Z,968.82
2019-01-15T03:08:00.666Z,968.83
2019-01-15T03:09:00.652Z,968.87
2019-01-15T03:10:00.650Z,968.84
2019-01-15T03:11:00.626Z,968.84
2019-01-15T03:12:00.623Z,968.85
2019-01-15T03:13:00.648Z,968.82
2019-01-15T03:14:00.620Z,968.87
2019-01-15T03:15:00.594Z,968.88
2019-01-15T03:16:00.583Z,968.85
2019-01-15T03:17:10.734Z,968.92
2019-01-15T03:18:00.552Z,968.91
2019-01-15T03:19:00.587Z,968.93
2019-01-15T03:20:00.533Z,968.97
2019-01-15T03:21:00.530Z,968.97
2019-01-15T03:22:00.511Z,969.00
2019-01-15T03:23:00.500Z,968.98
2019-01-15T03:24:00.498Z,969.01
2019-01-15T03:25:00.526Z,969.02
2019-01-15T03:26:00.471Z,969.02
2019-01-15T03:27:00.460Z,969.03
2019-01-15T03:28:00.445Z,969.00
2019-01-15T03:29:00.441Z,969.05
2019-01-15T03:30:00.465Z,969.08
2019-01-15T03:31:00.469Z,969.08
2019-01-15T03:32:00.416Z,969.12
2019-01-15T03:33:00.402Z,969.18
2019-01-15T03:34:00.388Z,969.13
2019-01-15T03:35:00.450Z,969.18
2019-01-15T03:36:00.360Z,969.25
2019-01-15T03:37:00.390Z,969.21
2019-01-15T03:38:00.341Z,969.21
2019-01-15T03:39:00.328Z,969.23
2019-01-15T03:40:00.328Z,969.25
2019-01-15T03:41:00.309Z,969.23
2019-01-15T03:42:00.295Z,969.25
2019-01-15T03:43:03.973Z,969.27
2019-01-15T03:44:00.280Z,969.28
2019-01-15T03:45:00.332Z,969.28
2019-01-15T03:46:04.519Z,969.29
2019-01-15T03:47:00.246Z,969.30
2019-01-15T03:48:11.183Z,969.30
2019-01-15T03:49:00.226Z,969.39
2019-01-15T03:50:00.274Z,969.36
2019-01-15T03:51:00.202Z,969.37
2019-01-15T03:52:00.196Z,969.33
2019-01-15T03:53:00.194Z,969.35
2019-01-15T03:54:00.218Z,969.34
2019-01-15T03:55:00.260Z,969.41
2019-01-15T03:56:00.159Z,969.38
2019-01-15T03:57:00.148Z,969.41
2019-01-15T03:58:00.137Z,969.44
2019-01-15T03:59:00.136Z,969.45
2019-01-15T04:00:00.263Z,969.46
2019-01-15T04:01:00.096Z,969.50
2019-01-15T04:02:00.110Z,969.50
2019-01-15T04:03:00.079Z,969.46
2019-01-15T04:04:00.069Z,969.49
2019-01-15T04:05:00.063Z,969.50
2019-01-15T04:06:00.099Z,969.47
2019-01-15T04:07:00.045Z,969.50
2019-01-15T04:08:00.026Z,969.53
2019-01-15T04:09:00.011Z,969.51
2019-01-15T04:10:00.009Z,969.49
2019-01-15T04:10:59.993Z,969.53
2019-01-15T04:12:00.153Z,969.51
2019-01-15T04:12:59.974Z,969.48
2019-01-15T04:13:59.969Z,969.53
2019-01-15T04:14:59.954Z,969.52
2019-01-15T04:15:59.941Z,969.59
2019-01-15T04:16:59.929Z,969.64
2019-01-15T04:17:59.960Z,969.63
2019-01-15T04:19:10.225Z,969.57
2019-01-15T04:19:59.901Z,969.63
2019-01-15T04:20:59.887Z,969.60
2019-01-15T04:21:59.873Z,969.62
2019-01-15T04:22:59.860Z,969.65
2019-01-15T04:23:59.878Z,969.70
2019-01-15T04:24:59.854Z,969.70
2019-01-15T04:25:59.834Z,969.73
2019-01-15T04:26:59.831Z,969.68
2019-01-15T04:27:59.811Z,969.73
2019-01-15T04:28:59.798Z,969.74
2019-01-15T04:29:59.972Z,969.70
2019-01-15T04:30:59.783Z,969.71
2019-01-15T04:31:59.773Z,969.76
2019-01-15T04:32:59.754Z,969.74
2019-01-15T04:33:59.758Z,969.77
2019-01-15T04:34:59.741Z,969.77
2019-01-15T04:35:59.766Z,969.78
2019-01-15T04:36:59.718Z,969.75
2019-01-15T04:37:59.711Z,969.82
2019-01-15T04:38:59.699Z,969.83
2019-01-15T04:39:59.762Z,969.77
2019-01-15T04:40:59.672Z,969.77
2019-01-15T04:41:59.834Z,969.76
2019-01-15T04:42:59.647Z,969.86
2019-01-15T04:43:59.646Z,969.87
2019-01-15T04:44:59.632Z,969.89
2019-01-15T04:45:59.627Z,969.88
2019-01-15T04:46:59.609Z,969.95
2019-01-15T04:47:59.686Z,969.92
2019-01-15T04:48:59.590Z,969.92
2019-01-15T04:50:09.954Z,969.99
2019-01-15T04:50:59.570Z,969.95
2019-01-15T04:51:59.555Z,969.94
2019-01-15T04:52:59.547Z,970.00
2019-01-15T04:53:59.570Z,970.00
2019-01-15T04:54:59.523Z,970.01
2019-01-15T04:55:59.514Z,970.00
2019-01-15T04:56:59.512Z,970.04
2019-01-15T04:57:59.496Z,970.05
2019-01-15T04:58:59.481Z,970.03
2019-01-15T04:59:59.641Z,970.07
2019-01-15T05:00:59.462Z,970.08
2019-01-15T05:01:59.446Z,970.11
2019-01-15T05:02:59.436Z,970.05
2019-01-15T05:03:59.426Z,970.11
2019-01-15T05:04:59.418Z,970.13
2019-01-15T05:05:59.447Z,970.14
2019-01-15T05:06:59.399Z,970.14
2019-01-15T05:07:59.388Z,970.13
2019-01-15T05:08:59.381Z,970.13
2019-01-15T05:09:59.368Z,970.13
2019-01-15T05:10:59.353Z,970.19
2019-01-15T05:11:59.369Z,970.16
2019-01-15T05:12:59.334Z,970.18
2019-01-15T05:13:59.326Z,970.19
2019-01-15T05:14:59.310Z,970.23
2019-01-15T05:15:59.306Z,970.21
2019-01-15T05:16:59.295Z,970.24
2019-01-15T05:17:59.314Z,970.20
2019-01-15T05:18:59.276Z,970.24
2019-01-15T05:19:59.253Z,970.24
2019-01-15T05:21:09.913Z,970.28
2019-01-15T05:21:59.232Z,970.29
2019-01-15T05:22:59.227Z,970.27
2019-01-15T05:23:59.237Z,970.31
2019-01-15T05:24:59.206Z,970.29
2019-01-15T05:25:59.192Z,970.33
2019-01-15T05:26:59.191Z,970.31
2019-01-15T05:27:59.181Z,970.34
2019-01-15T05:28:59.160Z,970.40
2019-01-15T05:29:59.175Z,970.38
2019-01-15T05:30:59.154Z,970.40
2019-01-15T05:31:59.127Z,970.37
2019-01-15T05:32:59.132Z,970.43
2019-01-15T05:33:59.112Z,970.39
2019-01-15T05:34:59.098Z,970.45
2019-01-15T05:35:59.109Z,970.44
2019-01-15T05:36:59.085Z,970.43
2019-01-15T05:37:59.064Z,970.44
2019-01-15T05:38:59.070Z,970.48
2019-01-15T05:39:59.043Z,970.51
2019-01-15T05:40:59.042Z,970.51
2019-01-15T05:41:59.069Z,970.53
2019-01-15T05:42:59.016Z,970.53
2019-01-15T05:43:59.006Z,970.50
2019-01-15T05:44:58.991Z,970.55
2019-01-15T05:45:58.986Z,970.54
2019-01-15T05:46:58.980Z,970.58
2019-01-15T05:47:58.981Z,970.57
2019-01-15T05:48:58.951Z,970.56
2019-01-15T05:49:58.937Z,970.63
2019-01-15T05:50:58.933Z,970.59
2019-01-15T05:52:09.317Z,970.61
2019-01-15T05:52:58.909Z,970.60
2019-01-15T05:53:58.911Z,970.59
2019-01-15T05:54:58.885Z,970.59
2019-01-15T05:55:58.871Z,970.59
2019-01-15T05:56:58.863Z,970.62
2019-01-15T05:57:58.857Z,970.62
2019-01-15T05:58:58.852Z,970.60
2019-01-15T05:59:58.869Z,970.62
2019-01-15T06:00:58.825Z,970.63
2019-01-15T06:01:58.813Z,970.64
2019-01-15T06:02:58.798Z,970.68
2019-01-15T06:03:58.789Z,970.67
2019-01-15T06:04:58.781Z,970.71
2019-01-15T06:05:58.809Z,970.71
2019-01-15T06:06:58.758Z,970.72
2019-01-15T06:07:58.748Z,970.72
2019-01-15T06:08:58.739Z,970.75
2019-01-15T06:09:58.729Z,970.70
2019-01-15T06:10:58.722Z,970.81
2019-01-15T06:11:58.743Z,970.79
2019-01-15T06:12:58.757Z,970.73
2019-01-15T06:13:58.689Z,970.82
2019-01-15T06:14:58.671Z,970.86
2019-01-15T06:15:58.669Z,970.85
2019-01-15T06:16:58.649Z,970.84
2019-01-15T06:17:58.656Z,970.85
2019-01-15T06:18:58.630Z,970.77
2019-01-15T06:19:58.620Z,970.86
2019-01-15T06:20:58.607Z,970.83
2019-01-15T06:21:58.602Z,970.90
2019-01-15T06:23:08.751Z,970.89
2019-01-15T06:23:58.584Z,970.90
2019-01-15T06:24:58.567Z,970.92
2019-01-15T06:25:58.560Z,970.92
2019-01-15T06:26:58.550Z,970.94
2019-01-15T06:27:58.543Z,970.97
2019-01-15T06:29:06.283Z,970.97
2019-01-15T06:29:58.518Z,970.95
2019-01-15T06:30:58.515Z,970.92
2019-01-15T06:31:58.492Z,971.00
2019-01-15T06:32:58.481Z,971.00
2019-01-15T06:33:58.471Z,971.01
2019-01-15T06:34:58.652Z,970.98
2019-01-15T06:35:58.465Z,971.04
2019-01-15T06:36:58.442Z,971.04
2019-01-15T06:37:58.428Z,971.11
2019-01-15T06:38:58.427Z,971.14
2019-01-15T06:40:05.812Z,971.13
2019-01-15T06:41:05.397Z,971.10
2019-01-15T06:41:58.397Z,971.10
2019-01-15T06:42:58.378Z,971.17
2019-01-15T06:43:58.376Z,971.22
2019-01-15T06:44:58.355Z,971.16
2019-01-15T06:45:58.394Z,971.14
2019-01-15T06:46:58.383Z,971.22
2019-01-15T06:47:58.333Z,971.22
2019-01-15T06:48:58.351Z,971.20
2019-01-15T06:49:58.298Z,971.23
2019-01-15T06:50:58.293Z,971.25
2019-01-15T06:51:58.321Z,971.23
2019-01-15T06:52:58.274Z,971.27
2019-01-15T06:53:58.276Z,971.26
2019-01-15T06:54:58.260Z,971.24
2019-01-15T06:55:58.242Z,971.25
2019-01-15T06:56:58.234Z,971.27
2019-01-15T06:57:58.257Z,971.28
2019-01-15T06:59:05.707Z,971.31
2019-01-15T06:59:58.197Z,971.30
2019-01-15T07:00:58.185Z,971.34
2019-01-15T07:01:58.184Z,971.31
2019-01-15T07:02:58.183Z,971.32
2019-01-15T07:03:58.331Z,971.37
2019-01-15T07:04:58.153Z,971.35
2019-01-15T07:05:58.139Z,971.36
2019-01-15T07:06:58.124Z,971.39
2019-01-15T07:07:58.124Z,971.40
2019-01-15T07:08:58.104Z,971.40
2019-01-15T07:09:58.312Z,971.40
2019-01-15T07:10:58.114Z,971.46
2019-01-15T07:11:58.073Z,971.48
2019-01-15T07:12:58.062Z,971.52
2019-01-15T07:13:58.052Z,971.50
2019-01-15T07:14:58.050Z,971.48
2019-01-15T07:15:58.072Z,971.48
2019-01-15T07:16:58.026Z,971.50
2019-01-15T07:17:58.010Z,971.49
2019-01-15T07:18:58.060Z,971.55
2019-01-15T07:19:57.987Z,971.54
2019-01-15T07:20:57.979Z,971.57
2019-01-15T07:21:58.001Z,971.54
2019-01-15T07:22:57.952Z,971.58
2019-01-15T07:23:58.020Z,971.63
2019-01-15T07:24:57.945Z,971.57
2019-01-15T07:25:57.961Z,971.60
2019-01-15T07:26:57.908Z,971.57
2019-01-15T07:27:57.928Z,971.59
2019-01-15T07:28:57.889Z,971.55
2019-01-15T07:30:09.209Z,971.60
2019-01-15T07:30:57.877Z,971.52
2019-01-15T07:31:57.859Z,971.64
2019-01-15T07:32:57.901Z,971.61
2019-01-15T07:33:57.937Z,971.67
2019-01-15T07:34:57.826Z,971.63
2019-01-15T07:35:57.814Z,971.65
2019-01-15T07:36:57.816Z,971.69
2019-01-15T07:37:57.811Z,971.69
2019-01-15T07:38:57.785Z,971.71
2019-01-15T07:39:57.814Z,971.70
2019-01-15T07:40:57.767Z,971.69
2019-01-15T07:41:57.759Z,971.70
2019-01-15T07:42:57.743Z,971.73
2019-01-15T07:44:04.187Z,971.69
2019-01-15T07:44:58.826Z,971.69
2019-01-15T07:45:57.709Z,971.72
2019-01-15T07:46:57.699Z,971.74
2019-01-15T07:47:57.695Z,971.77
2019-01-15T07:48:57.680Z,971.78
2019-01-15T07:49:57.669Z,971.81
2019-01-15T07:50:57.774Z,971.79
2019-01-15T07:51:57.648Z,971.81
2019-01-15T07:52:57.638Z,971.83
2019-01-15T07:53:57.635Z,971.89
2019-01-15T07:54:57.612Z,971.83
2019-01-15T07:55:57.606Z,971.85
2019-01-15T07:56:57.825Z,971.85
2019-01-15T07:57:57.872Z,971.82
2019-01-15T07:58:57.660Z,971.85
2019-01-15T07:59:57.558Z,971.90
2019-01-15T08:01:07.992Z,971.88
2019-01-15T08:01:57.542Z,971.93
2019-01-15T08:02:57.574Z,971.93
2019-01-15T08:03:57.533Z,971.92
2019-01-15T08:04:57.511Z,971.95
2019-01-15T08:05:57.497Z,971.96
2019-01-15T08:06:57.498Z,972.00
2019-01-15T08:07:57.474Z,972.04
2019-01-15T08:08:57.517Z,972.01
2019-01-15T08:09:57.454Z,972.04
2019-01-15T08:10:57.445Z,972.08
2019-01-15T08:11:57.430Z,972.05
2019-01-15T08:12:57.427Z,972.09
2019-01-15T08:13:57.429Z,972.11
2019-01-15T08:14:57.441Z,972.03
2019-01-15T08:15:57.399Z,972.12
2019-01-15T08:16:57.382Z,972.07
2019-01-15T08:17:57.390Z,972.09
2019-01-15T08:18:57.362Z,972.10
2019-01-15T08:19:57.352Z,972.13
2019-01-15T08:20:57.426Z,972.14
2019-01-15T08:21:57.334Z,972.15
2019-01-15T08:22:57.321Z,972.10
2019-01-15T08:23:57.306Z,972.15
2019-01-15T08:24:57.431Z,972.17
2019-01-15T08:25:57.360Z,972.20
2019-01-15T08:26:57.355Z,972.21
2019-01-15T08:27:57.264Z,972.19
2019-01-15T08:28:57.264Z,972.22
2019-01-15T08:29:57.245Z,972.24
2019-01-15T08:30:57.227Z,972.25
2019-01-15T08:32:08.217Z,972.29
2019-01-15T08:32:57.212Z,972.26
2019-01-15T08:33:57.196Z,972.28
2019-01-15T08:34:57.192Z,972.29
2019-01-15T08:35:57.178Z,972.30
2019-01-15T08:36:57.166Z,972.34
2019-01-15T08:37:57.306Z,972.32
2019-01-15T08:38:57.147Z,972.34
2019-01-15T08:39:57.138Z,972.32
2019-01-15T08:40:57.134Z,972.34
2019-01-15T08:41:57.127Z,972.39
2019-01-15T08:42:57.107Z,972.35
2019-01-15T08:43:57.136Z,972.37
2019-01-15T08:44:57.080Z,972.37
2019-01-15T08:45:57.076Z,972.41
2019-01-15T08:46:57.080Z,972.38
2019-01-15T08:47:57.049Z,972.40
2019-01-15T08:48:57.064Z,972.40
2019-01-15T08:49:57.071Z,972.40
2019-01-15T08:50:57.018Z,972.43
2019-01-15T08:51:57.011Z,972.42
2019-01-15T08:52:57.001Z,972.43
2019-01-15T08:53:56.989Z,972.41
2019-01-15T08:54:56.976Z,972.39
2019-01-15T08:55:57.021Z,972.41
2019-01-15T08:56:56.963Z,972.43
2019-01-15T08:57:56.946Z,972.45
2019-01-15T08:58:56.934Z,972.45
2019-01-15T08:59:56.932Z,972.45
2019-01-15T09:00:56.914Z,972.45
2019-01-15T09:01:57.068Z,972.50
2019-01-15T09:03:07.555Z,972.49
2019-01-15T09:03:56.883Z,972.54
2019-01-15T09:04:56.869Z,972.51
2019-01-15T09:05:56.862Z,972.54
2019-01-15T09:06:56.850Z,972.58
2019-01-15T09:07:56.885Z,972.54
2019-01-15T09:08:56.833Z,972.55
2019-01-15T09:09:56.821Z,972.58
2019-01-15T09:10:56.804Z,972.58
2019-01-15T09:11:56.796Z,972.57
2019-01-15T09:12:56.790Z,972.54
2019-01-15T09:13:56.815Z,972.61
2019-01-15T09:14:56.899Z,972.65
2019-01-15T09:15:56.753Z,972.58
2019-01-15T09:16:56.767Z,972.57
2019-01-15T09:17:56.738Z,972.54
2019-01-15T09:18:56.716Z,972.50
2019-01-15T09:19:56.748Z,972.50
2019-01-15T09:20:56.708Z,972.51
2019-01-15T09:21:56.689Z,972.51
2019-01-15T09:22:56.687Z,972.50
2019-01-15T09:23:56.664Z,972.50
2019-01-15T09:24:56.661Z,972.54
2019-01-15T09:25:56.675Z,972.52
2019-01-15T09:26:56.636Z,972.54
2019-01-15T09:27:56.628Z,972.58
2019-01-15T09:28:56.622Z,972.55
2019-01-15T09:29:56.605Z,972.57
2019-01-15T09:30:56.613Z,972.56
2019-01-15T09:31:56.756Z,972.53
2019-01-15T09:32:56.574Z,972.55
2019-01-15T09:34:06.818Z,972.60
2019-01-15T09:34:56.547Z,972.55
2019-01-15T09:35:56.543Z,972.64
2019-01-15T09:36:56.526Z,972.57
2019-01-15T09:37:56.560Z,972.58
2019-01-15T09:38:56.509Z,972.60
2019-01-15T09:39:56.492Z,972.58
2019-01-15T09:40:56.481Z,972.59
2019-01-15T09:41:56.497Z,972.58
2019-01-15T09:42:56.468Z,972.59
2019-01-15T09:43:56.496Z,972.62
2019-01-15T09:44:56.441Z,972.66
2019-01-15T09:45:56.438Z,972.69
2019-01-15T09:46:56.424Z,972.65
2019-01-15T09:47:56.450Z,972.68
2019-01-15T09:48:56.400Z,972.67
2019-01-15T09:49:56.628Z,972.63
2019-01-15T09:50:56.381Z,972.65
2019-01-15T09:51:56.367Z,972.70
2019-01-15T09:52:56.361Z,972.68
2019-01-15T09:53:56.352Z,972.67
2019-01-15T09:54:56.353Z,972.67
2019-01-15T09:55:56.376Z,972.61
2019-01-15T09:56:56.314Z,972.63
2019-01-15T09:57:56.305Z,972.65
2019-01-15T09:58:56.291Z,972.65
2019-01-15T09:59:56.289Z,972.66
2019-01-15T10:00:56.273Z,972.70
2019-01-15T10:01:56.304Z,972.71
2019-01-15T10:02:56.250Z,972.73
2019-01-15T10:03:56.241Z,972.77
2019-01-15T10:05:07.963Z,972.76
2019-01-15T10:05:56.219Z,972.76
2019-01-15T10:06:56.205Z,972.78
2019-01-15T10:07:56.221Z,972.78
2019-01-15T10:08:56.192Z,972.79
2019-01-15T10:09:56.260Z,972.74
2019-01-15T10:10:56.163Z,972.77
2019-01-15T10:11:56.161Z,972.81
2019-01-15T10:12:56.142Z,972.83
2019-01-15T10:13:56.184Z,972.72
2019-01-15T10:14:56.127Z,972.74
2019-01-15T10:15:56.116Z,972.75
2019-01-15T10:16:56.111Z,972.73
2019-01-15T10:17:56.090Z,972.82
2019-01-15T10:18:56.086Z,972.80
2019-01-15T10:19:56.106Z,972.82
2019-01-15T10:20:56.070Z,972.75
2019-01-15T10:21:56.059Z,972.75
2019-01-15T10:22:56.040Z,972.82
2019-01-15T10:23:56.033Z,972.80
2019-01-15T10:24:56.023Z,972.81
2019-01-15T10:25:56.183Z,972.85
2019-01-15T10:26:56.016Z,972.87
2019-01-15T10:27:55.983Z,972.90
2019-01-15T10:28:55.978Z,972.88
2019-01-15T10:29:59.309Z,972.88
2019-01-15T10:30:55.957Z,972.94
2019-01-15T10:31:55.985Z,972.88
2019-01-15T10:32:55.929Z,972.87
2019-01-15T10:33:55.924Z,972.80
2019-01-15T10:34:55.910Z,972.85
2019-01-15T10:36:06.482Z,972.87
2019-01-15T10:36:55.886Z,972.87
2019-01-15T10:37:55.909Z,972.85
2019-01-15T10:38:55.865Z,972.90
2019-01-15T10:39:55.862Z,972.89
2019-01-15T10:40:55.855Z,972.90
2019-01-15T10:41:55.837Z,972.92
2019-01-15T10:42:55.828Z,972.94
2019-01-15T10:43:55.860Z,972.90
2019-01-15T10:44:55.801Z,972.89
2019-01-15T10:45:55.794Z,972.93
2019-01-15T10:46:55.779Z,972.88
2019-01-15T10:47:55.782Z,972.87
2019-01-15T10:48:55.762Z,972.85
2019-01-15T10:49:55.788Z,972.85
2019-01-15T10:50:55.742Z,972.88
2019-01-15T10:51:55.729Z,972.80
2019-01-15T10:52:55.717Z,972.80
2019-01-15T10:53:55.702Z,972.84
2019-01-15T10:54:55.705Z,972.84
2019-01-15T10:56:02.955Z,972.81
2019-01-15T10:56:55.671Z,972.83
2019-01-15T10:57:55.665Z,972.86
2019-01-15T10:58:55.657Z,972.80
2019-01-15T10:59:55.640Z,972.81
2019-01-15T11:00:55.635Z,972.78
2019-01-15T11:02:02.955Z,972.85
2019-01-15T11:02:55.623Z,972.86
2019-01-15T11:03:55.596Z,972.84
2019-01-15T11:04:55.593Z,972.87
2019-01-15T11:05:55.582Z,972.86
2019-01-15T11:06:55.596Z,972.84
2019-01-15T11:07:55.751Z,972.84
2019-01-15T11:08:55.550Z,972.82
2019-01-15T11:09:55.540Z,972.88
2019-01-15T11:10:55.545Z,972.85
2019-01-15T11:11:55.525Z,972.86
2019-01-15T11:12:55.519Z,972.82
2019-01-15T11:13:55.536Z,972.84
2019-01-15T11:14:56.181Z,972.85
2019-01-15T11:15:55.484Z,972.83
2019-01-15T11:16:55.500Z,972.94
2019-01-15T11:17:55.555Z,972.95
2019-01-15T11:18:55.450Z,972.91
2019-01-15T11:19:55.447Z,972.95
2019-01-15T11:20:55.421Z,972.97
2019-01-15T11:21:55.408Z,972.95
2019-01-15T11:22:55.407Z,972.99
2019-01-15T11:23:55.432Z,973.01
2019-01-15T11:24:55.401Z,972.91
2019-01-15T11:25:55.446Z,972.94
2019-01-15T11:26:55.379Z,972.95
2019-01-15T11:27:55.389Z,972.98
2019-01-15T11:28:55.340Z,972.96
2019-01-15T11:29:55.396Z,972.95
2019-01-15T11:30:55.329Z,972.96
2019-01-15T11:31:55.322Z,972.98
2019-01-15T11:33:05.498Z,972.95
2019-01-15T11:33:55.280Z,972.93
2019-01-15T11:34:55.285Z,972.94
2019-01-15T11:35:55.259Z,972.97
2019-01-15T11:36:55.248Z,972.99
2019-01-15T11:37:55.272Z,973.01
2019-01-15T11:38:55.229Z,972.99
2019-01-15T11:39:55.217Z,972.99
2019-01-15T11:40:55.204Z,973.12
2019-01-15T11:41:55.198Z,973.08
2019-01-15T11:42:55.182Z,973.04
2019-01-15T11:43:55.214Z,973.06
2019-01-15T11:44:55.166Z,973.05
2019-01-15T11:45:55.148Z,973.02
2019-01-15T11:46:55.138Z,973.04
2019-01-15T11:47:55.135Z,973.05
2019-01-15T11:48:55.125Z,973.04
2019-01-15T11:49:55.154Z,973.04
2019-01-15T11:51:02.093Z,973.09
2019-01-15T11:51:55.094Z,973.08
2019-01-15T11:52:55.080Z,973.09
2019-01-15T11:53:55.092Z,973.07
2019-01-15T11:54:55.069Z,973.04
2019-01-15T11:55:55.220Z,973.05
2019-01-15T11:56:55.039Z,973.05
2019-01-15T11:57:55.051Z,973.04
2019-01-15T11:58:55.025Z,973.01
2019-01-15T11:59:55.016Z,973.02
2019-01-15T12:00:55.019Z,973.08
2019-01-15T12:01:55.022Z,973.05
2019-01-15T12:02:54.997Z,973.01
2019-01-15T12:03:54.985Z,973.01
2019-01-15T12:04:55.041Z,973.02
2019-01-15T12:05:54.943Z,973.05
2019-01-15T12:06:54.934Z,973.02
2019-01-15T12:07:55.183Z,973.01
2019-01-15T12:08:54.915Z,973.04
2019-01-15T12:09:54.898Z,973.05
2019-01-15T12:10:54.915Z,972.98
2019-01-15T12:11:54.890Z,973.00
2019-01-15T12:12:54.865Z,973.08
2019-01-15T12:13:54.898Z,973.08
2019-01-15T12:14:54.843Z,973.08
2019-01-15T12:15:54.840Z,973.09
2019-01-15T12:16:54.874Z,973.14
2019-01-15T12:17:54.814Z,973.14
2019-01-15T12:18:54.816Z,973.14
2019-01-15T12:19:54.975Z,973.12
2019-01-15T12:20:54.786Z,973.15
2019-01-15T12:22:04.869Z,973.18
2019-01-15T12:22:54.787Z,973.18
2019-01-15T12:23:54.750Z,973.15
2019-01-15T12:24:54.741Z,973.22
2019-01-15T12:25:54.772Z,973.18
2019-01-15T12:26:54.728Z,973.17
2019-01-15T12:27:54.736Z,973.22
2019-01-15T12:28:54.721Z,973.20
2019-01-15T12:29:54.695Z,973.20
2019-01-15T12:30:54.694Z,973.21